Latest Weather Observations for Curtin

IDW60801

Issued at 9:32 pm WST Sunday 29 March 2015 (issued every 30 minutes, with the page automatically refreshed every 10 minutes)

About weather observations | Map of weather stations | Latest weather observations for WA | Other Formats
Station Details ID: 003080 Name: CURTIN AERO Lat: -17.58 Lon: 123.83 Height: 77.5 m
Data from the previous 72 hours. | See also: Recent months at Curtin
Date/Time
WST
Temp
°C
App
Temp
°C
Dew
Point
Rel
Hum
%
Delta-T
°C
Wind Press
QNH
hPa
Press
MSL
hPa
Rain
since 9 am
mm
Dir
 
Spd
km/h
Gust
km/h
Spd
kts
Gust
kts
29/09:30pm 26.7 31.5 24.4 87 1.6 SSW 7 9 4 5 1012.5 1012.0 0.0
29/09:00pm 27.1 31.2 24.0 83 2.1 SSW 9 11 5 6 1012.6 1012.1 0.0
29/08:30pm 27.5 33.8 24.7 85 2.0 CALM 0 6 0 3 1012.7 1012.2 0.0
29/08:00pm 27.5 32.6 24.7 85 2.0 SW 6 9 3 5 1012.7 1012.2 0.0
29/07:30pm 27.6 32.5 24.4 83 2.2 WSW 6 7 3 4 1012.3 1011.8 0.0
29/07:00pm 27.9 32.2 24.3 81 2.5 SSW 9 13 5 7 1012.3 1011.8 0.0
29/06:30pm 28.4 32.8 23.8 76 3.2 WNW 7 9 4 5 1012.1 1011.6 0.0
29/06:00pm 28.8 32.9 23.2 71 3.8 WNW 7 7 4 4 1011.9 1011.4 0.0
29/05:30pm 29.3 33.2 23.0 69 4.3 NW 7 9 4 5 1011.7 1011.2 0.0
29/05:00pm 30.1 33.4 22.5 63 5.2 WNW 9 13 5 7 1011.4 1010.9 0.0
29/04:30pm 30.8 34.3 22.9 62 5.4 NW 9 15 5 8 1011.4 1010.9 0.0
29/04:00pm 32.9 35.5 20.1 47 8.5 W 6 7 3 4 1011.2 1010.6 0.0
29/03:30pm 33.1 35.9 18.8 42 9.4 NNE 2 7 1 4 1011.1 1010.5 0.0
29/03:00pm 33.3 35.2 19.0 42 9.4 SE 7 11 4 6 1011.2 1010.6 0.0
29/02:30pm 33.6 36.4 19.7 44 9.2 N 4 11 2 6 1011.3 1010.7 0.0
29/02:00pm 33.3 36.1 20.4 46 8.6 E 6 9 3 5 1011.3 1010.7 0.0
29/01:30pm 32.9 34.2 20.1 47 8.5 ENE 13 15 7 8 1011.4 1010.9 0.0
29/01:00pm 33.7 34.3 18.6 40 9.9 NE 13 20 7 11 1011.5 1011.0 0.0
29/12:30pm 33.5 35.8 21.3 48 8.3 ENE 11 19 6 10 1011.7 1011.2 0.0
29/12:00pm 32.8 36.5 23.2 57 6.7 NNE 9 11 5 6 1012.1 1011.6 0.0
29/11:30am 31.6 34.4 22.3 57 6.4 ENE 11 19 6 10 1012.7 1012.2 0.0
29/11:00am 31.2 33.7 22.5 60 6.0 ENE 13 20 7 11 1013.1 1012.6 0.0
29/10:30am 31.0 33.2 22.6 61 5.8 ESE 15 20 8 11 1013.5 1013.0 0.0
29/10:00am 29.5 32.4 23.2 69 4.3 E 13 19 7 10 1013.7 1013.2 0.0
29/09:30am 29.3 32.1 23.0 69 4.3 ENE 13 19 7 10 1013.9 1013.4 0.0
29/09:00am 28.9 31.6 22.9 70 4.1 E 13 20 7 11 1013.8 1013.3 13.0
29/08:30am 27.8 31.0 23.0 75 3.3 ESE 11 19 6 10 1013.5 1013.0 13.0
29/08:00am 26.9 29.3 22.3 76 3.1 E 13 17 7 9 1013.4 1012.9 13.0
29/07:30am 26.3 29.6 22.6 80 2.5 E 9 15 5 8 1013.2 1012.7 13.0
29/07:00am 25.6 27.9 22.1 81 2.3 ESE 13 17 7 9 1012.6 1012.1 13.0
29/06:30am 24.9 27.5 22.0 84 1.9 ESE 11 17 6 9 1012.1 1011.6 13.0
29/06:00am 24.3 26.7 21.6 85 1.8 ESE 11 15 6 8 1011.8 1011.3 13.0
29/05:30am 24.2 26.5 21.3 84 1.9 ESE 11 15 6 8 1011.5 1011.0 13.0
29/05:00am 24.1 26.7 22.0 88 1.4 ESE 11 13 6 7 1011.4 1010.9 13.0
29/04:30am 24.0 27.2 22.4 91 1.1 E 9 13 5 7 1011.4 1010.9 13.0
29/04:00am 24.1 27.8 22.5 91 1.1 E 7 11 4 6 1011.4 1010.9 13.0
29/03:30am 24.1 27.6 22.9 93 0.8 SE 9 13 5 7 1011.2 1010.6 13.0
29/03:00am 24.1 28.2 22.9 93 0.8 ESE 6 7 3 4 1011.2 1010.6 13.0
29/02:30am 24.0 27.8 22.8 93 0.8 ESE 7 11 4 6 1011.0 1010.4 13.0
29/02:00am 24.0 27.5 22.8 93 0.8 ESE 9 11 5 6 1011.2 1010.6 13.0
29/01:30am 23.7 27.2 22.9 95 0.5 ESE 9 13 5 7 1011.4 1010.9 13.0
29/01:00am 23.7 27.4 23.2 97 0.3 SE 9 15 5 8 1011.6 1011.1 13.0
29/12:30am 23.7 26.3 22.7 94 0.7 ESE 13 17 7 9 1011.9 1011.4 13.0
29/12:00am 23.6 26.7 22.8 95 0.5 ESE 11 15 6 8 1012.3 1011.8 13.0
 
Date/Time
WST
Temp
°C
App
Temp
°C
Dew
Point
Rel
Hum
%
Delta-T
°C
Wind Press
QNH
hPa
Press
MSL
hPa
Rain
since 9 am
mm
Dir
 
Spd
km/h
Gust
km/h
Spd
kts
Gust
kts
28/11:30pm 23.5 27.3 22.7 95 0.5 ESE 7 9 4 5 1012.5 1012.0 13.0
28/11:00pm 23.3 26.6 22.5 95 0.5 ESE 9 13 5 7 1013.1 1012.6 12.8
28/10:30pm 23.1 26.7 22.3 95 0.5 E 7 9 4 5 1013.5 1013.0 12.8
28/10:00pm 23.4 25.2 21.8 91 1.1 E 15 26 8 14 1013.9 1013.4 12.4
28/09:30pm 23.4 25.4 22.9 97 0.3 E 17 22 9 12 1014.1 1013.6 12.4
28/09:00pm 23.4 25.5 23.1 98 0.2 E 17 28 9 15 1014.3 1013.8 12.4
28/08:30pm 23.5 25.7 23.2 98 0.2 E 17 26 9 14 1014.1 1013.6 12.2
28/08:00pm 23.2 25.1 22.7 97 0.3 ESE 17 24 9 13 1013.7 1013.2 11.2
28/07:30pm 23.2 25.5 22.7 97 0.3 ESE 15 32 8 17 1013.1 1012.6 10.4
28/07:00pm 23.0 25.0 23.0 100 0.0 SE 17 20 9 11 1012.4 1011.9 10.2
28/06:30pm 22.7 24.8 22.4 98 0.2 ESE 15 20 8 11 1012.5 1012.0 8.0
28/06:00pm 24.0 26.5 23.8 99 0.1 NE 17 24 9 13 1012.5 1012.0 4.2
28/05:30pm 23.9 25.4 23.0 95 0.6 NNE 20 33 11 18 1011.8 1011.3 3.8
28/05:16pm 25.0 26.3 22.3 85 1.8 NNE 19 28 10 15 1011.4 1010.9 2.0
28/05:00pm 30.0 32.8 20.8 57 6.1 NE 7 9 4 5 1010.4 1009.8 0.0
28/04:30pm 30.5 32.5 20.7 55 6.5 E 11 17 6 9 1009.9 1009.3 0.0
28/04:00pm 30.6 31.7 20.5 54 6.7 E 15 20 8 11 1009.7 1009.1 0.0
28/03:30pm 31.2 32.8 20.8 54 7.0 E 13 20 7 11 1009.6 1009.0 0.0
28/03:00pm 31.4 32.5 21.3 55 6.8 ESE 17 28 9 15 1009.6 1009.0 0.0
28/02:30pm 29.7 30.4 21.6 61 5.5 ESE 20 30 11 16 1009.7 1009.1 0.0
28/02:00pm 30.7 30.3 20.9 56 6.6 ESE 24 41 13 22 1009.8 1009.2 0.0
28/01:30pm 32.8 33.8 20.3 47 8.3 ENE 15 26 8 14 1009.9 1009.3 0.0
28/01:00pm 31.5 33.3 21.1 54 7.0 ENE 13 20 7 11 1010.5 1009.9 0.0
28/12:30pm 32.3 33.6 20.9 51 7.7 E 15 24 8 13 1010.6 1010.0 0.0
28/12:00pm 32.9 34.1 21.4 50 7.8 ENE 17 26 9 14 1011.1 1010.5 0.0
28/11:30am 30.9 31.3 19.9 52 7.3 ENE 17 28 9 15 1011.7 1011.2 0.0
28/11:00am 30.4 30.2 19.7 52 7.0 ENE 20 37 11 20 1012.2 1011.7 0.0
28/10:30am 29.9 29.9 20.2 56 6.4 NE 20 32 11 17 1012.8 1012.3 0.0
28/10:00am 30.8 30.7 20.7 55 6.7 ENE 22 33 12 18 1012.7 1012.2 0.0
28/09:30am 31.4 32.4 21.0 54 7.0 E 17 22 9 12 1012.7 1012.2 0.0
28/09:00am 30.6 32.0 21.1 57 6.4 ENE 15 22 8 12 1012.7 1012.2 0.0
28/08:30am 29.6 31.1 21.3 61 5.6 ENE 15 20 8 11 1012.7 1012.2 0.0
28/08:00am 28.9 30.6 21.7 65 4.8 E 15 20 8 11 1012.3 1011.8 0.0
28/07:30am 28.1 30.0 21.4 67 4.5 E 13 20 7 11 1012.1 1011.6 0.0
28/07:00am 27.5 29.5 21.5 70 4.0 E 13 19 7 10 1011.5 1011.0 0.0
28/06:30am 26.6 29.1 21.8 75 3.2 E 11 19 6 10 1011.3 1010.7 0.0
28/06:00am 26.3 29.1 21.5 75 3.2 E 9 13 5 7 1011.2 1010.6 0.0
28/05:30am 26.7 28.7 21.5 73 3.5 E 13 15 7 8 1011.1 1010.5 0.0
28/05:00am 26.8 29.6 21.5 72 3.5 ENE 9 15 5 8 1011.0 1010.4 0.0
28/04:30am 26.7 29.6 21.7 74 3.3 ENE 9 11 5 6 1010.9 1010.3 0.0
28/04:00am 26.6 29.9 21.8 75 3.2 E 7 11 4 6 1010.8 1010.2 0.0
28/03:30am 26.7 30.1 21.7 74 3.3 ENE 6 7 3 4 1010.7 1010.1 0.0
28/03:00am 26.7 29.8 21.5 73 3.5 E 7 9 4 5 1010.6 1010.0 0.0
28/02:30am 26.8 29.8 21.3 72 3.7 E 7 9 4 5 1010.5 1009.9 0.0
28/02:00am 26.9 29.5 21.2 71 3.8 E 9 11 5 6 1010.8 1010.2 0.0
28/01:30am 27.1 29.1 20.7 68 4.2 ENE 11 15 6 8 1011.1 1010.5 0.0
28/01:00am 27.3 29.7 20.1 64 4.7 ENE 7 11 4 6 1011.2 1010.6 0.0
28/12:30am 27.8 29.7 19.8 61 5.2 NE 9 13 5 7 1011.6 1011.1 0.0
28/12:00am 28.3 29.3 19.5 59 5.7 ENE 13 20 7 11 1011.7 1011.2 0.0
 
Date/Time
WST
Temp
°C
App
Temp
°C
Dew
Point
Rel
Hum
%
Delta-T
°C
Wind Press
QNH
hPa
Press
MSL
hPa
Rain
since 9 am
mm
Dir
 
Spd
km/h
Gust
km/h
Spd
kts
Gust
kts
27/11:30pm 28.5 28.7 19.4 57 5.9 ENE 17 24 9 13 1011.9 1011.4 0.0
27/11:00pm 28.1 28.6 20.1 62 5.3 ENE 17 24 9 13 1011.9 1011.4 0.0
27/10:30pm 27.6 29.4 21.2 68 4.3 ENE 13 20 7 11 1012.2 1011.7 0.0
27/10:00pm 27.7 28.5 21.3 68 4.3 ENE 19 26 10 14 1012.4 1011.9 0.0
27/09:30pm 28.4 29.1 21.2 65 4.8 NE 19 32 10 17 1012.5 1012.0 0.0
27/09:00pm 29.7 29.2 20.8 58 5.9 ENE 24 35 13 19 1012.2 1011.7 0.0
27/08:51pm 30.1 28.4 20.6 56 6.3 ENE 30 48 16 26 1012.1 1011.6 0.0
27/08:44pm 30.2 31.6 21.0 58 6.2 E 15 48 8 26 1011.7 1011.2 0.0
27/08:30pm 29.4 32.5 21.4 62 5.4 E 7 9 4 5 1011.4 1010.9 0.0
27/08:00pm 28.4 31.7 21.9 68 4.4 E 7 7 4 4 1011.1 1010.5 0.0
27/07:30pm 29.1 32.0 21.1 62 5.3 E 7 9 4 5 1010.7 1010.1 0.0
27/07:00pm 29.6 32.3 20.7 58 5.9 E 7 9 4 5 1010.4 1009.8 0.0
27/06:30pm 30.4 33.2 20.9 57 6.4 E 7 9 4 5 1010.0 1009.4 0.0
27/06:00pm 31.8 34.0 20.4 51 7.6 E 9 11 5 6 1009.6 1009.0 0.0
27/05:30pm 32.9 34.3 20.4 47 8.4 ESE 13 17 7 9 1009.4 1008.8 0.0
27/05:00pm 33.1 35.2 20.9 48 8.2 ESE 11 19 6 10 1009.2 1008.6 0.0
27/04:30pm 33.5 33.9 19.9 44 9.0 ESE 17 26 9 14 1009.1 1008.5 0.0
27/04:00pm 34.3 35.1 19.9 42 9.6 ENE 15 20 8 11 1009.0 1008.4 0.0
27/03:30pm 34.5 34.3 19.7 41 9.8 E 20 30 11 16 1008.9 1008.3 0.0
27/03:00pm 35.2 34.9 19.6 40 10.4 E 20 32 11 17 1008.8 1008.2 0.0
27/02:30pm 36.0 37.0 21.1 42 10.1 ENE 17 32 9 17 1008.8 1008.2 0.0
27/02:00pm 34.7 34.4 19.5 40 10.1 E 20 37 11 20 1009.0 1008.4 0.0
27/01:30pm 35.0 34.8 19.8 41 10.1 ENE 20 28 11 15 1009.3 1008.7 0.0
27/01:00pm 34.4 33.0 18.8 39 10.3 E 24 35 13 19 1009.9 1009.3 0.0
27/12:30pm 34.6 33.7 19.0 39 10.3 E 22 35 12 19 1010.4 1009.8 0.0
27/12:00pm 34.7 33.5 18.3 38 10.7 E 22 35 12 19 1010.8 1010.2 0.0
27/11:30am 34.2 32.7 17.8 37 10.6 E 22 35 12 19 1011.4 1010.9 0.0
27/11:00am 33.6 32.7 18.1 39 10.1 E 20 35 11 19 1012.0 1011.5 0.0
27/10:30am 33.0 31.2 18.7 42 9.3 ENE 26 39 14 21 1012.4 1011.9 0.0
27/10:00am 32.8 31.3 18.6 43 9.3 ENE 24 39 13 21 1013.1 1012.6 0.0
27/09:30am 32.1 30.7 17.9 42 9.2 E 22 39 12 21 1013.2 1012.7 0.0
27/09:00am 32.4 30.9 18.6 44 9.0 E 24 39 13 21 1013.5 1013.0 0.0
27/08:30am 31.8 31.0 18.0 43 8.9 E 19 30 10 16 1013.6 1013.1 0.0
27/08:00am 30.8 29.6 17.1 43 8.7 ESE 19 32 10 17 1013.6 1013.1 0.0
27/07:30am 29.9 28.6 16.7 45 8.3 ESE 19 24 10 13 1013.5 1013.0 0.0
27/07:00am 28.1 27.9 17.6 53 6.7 ESE 15 22 8 12 1013.4 1012.9 0.0
27/06:30am 27.9 28.1 18.6 57 6.0 ESE 15 20 8 11 1012.9 1012.4 0.0
27/06:00am 27.3 27.8 18.3 58 5.7 ESE 13 17 7 9 1012.5 1012.0 0.0
27/05:30am 27.6 27.9 18.0 55 6.1 ESE 13 17 7 9 1012.2 1011.7 0.0
27/05:00am 27.9 28.1 18.6 57 6.0 ESE 15 24 8 13 1012.0 1011.5 0.0
27/04:30am 27.7 28.3 18.7 58 5.8 ESE 13 19 7 10 1011.9 1011.4 0.0
27/04:00am 27.7 28.9 19.0 59 5.6 ESE 11 19 6 10 1011.8 1011.3 0.0
27/03:30am 27.9 29.1 19.1 58 5.7 ESE 11 13 6 7 1011.7 1011.2 0.0
27/03:00am 28.1 29.5 19.6 60 5.5 E 11 15 6 8 1011.8 1011.3 0.0
27/02:30am 28.1 29.5 19.6 60 5.5 E 11 13 6 7 1012.0 1011.5 0.0
27/02:00am 27.7 28.9 19.8 62 5.2 E 13 17 7 9 1012.1 1011.6 0.0
27/01:30am 27.2 28.6 19.5 62 5.0 E 11 17 6 9 1012.2 1011.7 0.0
27/01:00am 27.5 29.2 19.3 61 5.3 E 9 11 5 6 1012.2 1011.7 0.0
27/12:30am 28.5 29.3 19.1 56 6.1 E 13 19 7 10 1012.1 1011.6 0.0
27/12:00am 28.8 29.9 18.9 55 6.4 ESE 11 17 6 9 1012.1 1011.6 0.0
 
Date/Time
WST
Temp
°C
App
Temp
°C
Dew
Point
Rel
Hum
%
Delta-T
°C
Wind Press
QNH
hPa
Press
MSL
hPa
Rain
since 9 am
mm
Dir
 
Spd
km/h
Gust
km/h
Spd
kts
Gust
kts
26/11:30pm 28.5 29.7 19.1 56 6.1 ESE 11 15 6 8 1012.2 1011.7 0.0
26/11:00pm 28.6 29.8 19.0 56 6.2 ESE 11 13 6 7 1012.2 1011.7 0.0
26/10:30pm 29.1 30.3 19.1 54 6.5 ESE 11 15 6 8 1012.4 1011.9 0.0
26/10:00pm 29.5 30.6 18.9 53 6.9 ESE 11 15 6 8 1012.6 1012.1 0.0

Other Formats:

Comma delimited format used in spreadsheet applications
http://www.bom.gov.au/fwo/IDW60801/IDW60801.94204.axf

JavaScript Object Notation format (JSON) in row-major order
http://www.bom.gov.au/fwo/IDW60801/IDW60801.94204.json